LFRU/MXN METAR and TAF weather

Enter ICAO airport designator
Station Type Date Time Source
LFRU METAR 2022/06/28 20:00 UTC NOAA

LFRU 282000Z AUTO 18009G19KT 140V210 9999 FEW023 SCT029 BKN048 16/12 Q1014


Station Type Date Time Source
LFRU Decoded METAR 2022/06/28 20:00 UTC NOAA

Morlaix / Ploujean, France (LFRU) 48-36N 003-49W
Jun 28, 2022 - 04:00 PM EDT / 2022.06.28 2000 UTC
Wind: from the S (180 degrees) at 10 MPH (9 KT) gusting to 22 MPH (19 KT) (direction variable):0
Visibility: greater than 7 mile(s):0
Sky conditions: mostly cloudy
Temperature: 60 F (16 C)
Dew Point: 53 F (12 C)
Relative Humidity: 77%
Pressure (altimeter): 29.94 in. Hg (1014 hPa)
ob: LFRU 282000Z AUTO 18009G19KT 140V210 9999 FEW023 SCT029 BKN048 16/12 Q1014
cycle: 20

Station Type Date Time Source
LFRU TAF UTC NOAA

Error!

Example: see airport list